RJTC(METAR)
12/16 16:00
METAR RJTC 160700Z 04004KT 9999 FEW030 SCT100 11/M02 Q1008 RMK
1CU030 4AC100 A2977=
戻る
トップページへ戻る
IMOC Co,.Ltd.